Time;durP1;ratioP1;P1;durP2;ratioP2;P2;SDS_P1;SDS_P2;PMS_P1;PMS_P2;Temp;Humidity;BMP_temperature;BMP_pressure;BME280_temperature;BME280_humidity;BME280_pressure;Samples;Min_cycle;Max_cycle;Signal;HPM_P1;HPM_P2
2023/01/31 00:00:25;;;;;;;11.10;3.30;;;2.60;99.90;;;;;;4999013;28;20499;-57
2023/01/31 00:02:51;;;;;;;12.57;2.63;;;2.60;99.90;;;;;;4999086;28;20028;-56
2023/01/31 00:05:18;;;;;;;11.75;2.60;;;2.60;99.90;;;;;;4998615;28;20026;-58
2023/01/31 00:07:44;;;;;;;14.07;2.92;;;2.60;99.90;;;;;;4997945;28;20516;-55
2023/01/31 00:10:10;;;;;;;11.43;2.58;;;2.60;99.90;;;;;;4998826;28;20027;-56
2023/01/31 00:12:35;;;;;;;9.38;2.20;;;2.60;99.90;;;;;;4997806;28;20088;-59
2023/01/31 00:15:01;;;;;;;13.57;3.00;;;2.60;99.90;;;;;;4999634;28;20030;-56
2023/01/31 00:17:27;;;;;;;11.93;2.95;;;2.50;99.90;;;;;;4998358;28;20369;-58
2023/01/31 00:19:52;;;;;;;13.48;2.65;;;2.50;99.90;;;;;;4999799;28;20030;-57
2023/01/31 00:22:18;;;;;;;8.55;3.00;;;2.50;99.90;;;;;;4997528;28;20195;-58
2023/01/31 00:24:43;;;;;;;8.38;2.35;;;2.40;99.90;;;;;;4999780;28;20049;-58
2023/01/31 00:27:09;;;;;;;12.35;2.45;;;2.40;99.90;;;;;;4996920;28;20512;-56
2023/01/31 00:29:34;;;;;;;13.75;3.40;;;2.40;99.90;;;;;;4997470;28;20469;-57
2023/01/31 00:32:00;;;;;;;14.18;2.85;;;2.40;99.90;;;;;;4998127;28;20034;-58
2023/01/31 00:34:25;;;;;;;9.05;2.38;;;2.50;99.90;;;;;;4999664;28;20038;-55
2023/01/31 00:36:51;;;;;;;12.48;2.45;;;2.50;99.90;;;;;;4997392;28;20057;-56
2023/01/31 00:39:16;;;;;;;14.02;2.60;;;2.60;99.90;;;;;;4998297;28;20034;-57
2023/01/31 00:41:42;;;;;;;12.68;3.00;;;2.60;99.90;;;;;;4997524;28;20026;-57
2023/01/31 00:44:08;;;;;;;11.75;3.15;;;2.60;99.90;;;;;;4997670;28;20034;-58
2023/01/31 00:46:34;;;;;;;13.77;3.17;;;2.70;99.90;;;;;;4996913;28;20022;-58
2023/01/31 00:49:00;;;;;;;9.18;2.17;;;2.80;99.90;;;;;;4999377;28;20026;-52
2023/01/31 00:51:26;;;;;;;9.65;2.42;;;2.80;99.90;;;;;;4999087;28;20030;-57
2023/01/31 00:53:51;;;;;;;9.38;2.05;;;2.80;99.90;;;;;;5000219;28;20053;-56
2023/01/31 00:56:21;;;;;;;9.68;2.22;;;2.90;99.90;;;;;;4999624;28;20087;-56
2023/01/31 00:58:47;;;;;;;7.43;1.50;;;2.90;99.90;;;;;;4997389;28;20044;-58
2023/01/31 01:01:17;;;;;;;13.13;2.35;;;2.90;99.90;;;;;;4999397;28;20041;-57
2023/01/31 01:03:44;;;;;;;12.05;3.00;;;2.90;99.90;;;;;;4998785;28;20036;-54
2023/01/31 01:06:10;;;;;;;7.88;2.00;;;2.80;99.90;;;;;;4999018;28;20105;-58
2023/01/31 01:08:38;;;;;;;5.15;1.70;;;2.80;99.90;;;;;;4998156;28;20489;-58
2023/01/31 01:11:10;;;;;;;11.90;2.65;;;2.80;99.90;;;;;;4998656;28;20018;-54
2023/01/31 01:13:36;;;;;;;8.02;1.90;;;2.80;99.90;;;;;;4997992;28;20589;-56
2023/01/31 01:16:14;;;;;;;7.65;1.52;;;2.80;99.90;;;;;;4995491;28;20031;-59
2023/01/31 01:18:40;;;;;;;11.45;1.80;;;2.80;99.90;;;;;;4998153;28;20045;-58
2023/01/31 01:21:08;;;;;;;12.57;2.13;;;2.70;99.90;;;;;;4997220;28;20552;-58
2023/01/31 01:23:34;;;;;;;8.80;1.88;;;2.70;99.90;;;;;;4995754;28;20027;-59
2023/01/31 01:25:59;;;;;;;4.78;1.35;;;2.70;99.90;;;;;;4999229;28;20436;-57
2023/01/31 01:28:25;;;;;;;11.55;2.15;;;2.70;99.90;;;;;;4998888;28;20156;-58
2023/01/31 01:30:50;;;;;;;7.43;2.15;;;2.70;99.90;;;;;;4997517;28;20030;-58
2023/01/31 01:33:16;;;;;;;10.63;1.45;;;2.60;99.90;;;;;;4997414;28;20508;-56
2023/01/31 01:35:42;;;;;;;13.25;2.05;;;2.60;99.90;;;;;;4996691;28;20373;-58
2023/01/31 01:38:07;;;;;;;12.20;2.38;;;2.50;99.90;;;;;;4996223;28;20030;-58
2023/01/31 01:40:37;;;;;;;8.25;1.80;;;2.50;99.90;;;;;;4998629;28;20526;-55
2023/01/31 01:43:03;;;;;;;8.02;1.65;;;2.50;99.90;;;;;;4996497;28;20065;-56
2023/01/31 01:45:29;;;;;;;10.68;1.95;;;2.40;99.90;;;;;;4998701;28;20065;-54
2023/01/31 01:47:59;;;;;;;10.45;2.17;;;2.40;99.90;;;;;;4997801;28;20053;-56
2023/01/31 01:50:32;;;;;;;11.85;2.53;;;2.40;99.90;;;;;;5002117;28;20105;-55
2023/01/31 01:53:15;;;;;;;9.60;2.85;;;2.40;99.90;;;;;;5000575;28;20029;-57
2023/01/31 01:56:05;;;;;;;6.53;1.50;;;2.40;99.90;;;;;;5000179;28;20369;-55
2023/01/31 01:58:54;;;;;;;13.15;2.58;;;2.30;99.90;;;;;;5000135;28;20113;-55
2023/01/31 02:01:20;;;;;;;7.25;1.80;;;2.30;99.90;;;;;;4998751;28;20034;-56
2023/01/31 02:03:48;;;;;;;9.48;2.38;;;2.40;99.90;;;;;;5000311;28;20057;-56
2023/01/31 02:06:14;;;;;;;12.57;2.58;;;2.40;99.90;;;;;;5000231;28;20026;-55
2023/01/31 02:08:41;;;;;;;11.57;2.80;;;2.30;99.90;;;;;;5002141;28;20080;-58
2023/01/31 02:11:14;;;;;;;8.52;2.10;;;2.40;99.90;;;;;;5001153;28;20025;-57
2023/01/31 02:13:41;;;;;;;9.30;2.13;;;2.40;99.90;;;;;;5001235;28;20033;-59
2023/01/31 02:16:07;;;;;;;14.80;2.40;;;2.40;99.90;;;;;;5001505;28;20032;-59
2023/01/31 02:18:33;;;;;;;16.88;3.08;;;2.50;99.90;;;;;;4999856;28;20030;-59
2023/01/31 02:21:20;;;;;;;14.43;2.35;;;2.50;99.90;;;;;;4999110;28;20388;-57
2023/01/31 02:24:08;;;;;;;13.90;3.90;;;2.50;99.90;;;;;;5000730;28;20033;-57
2023/01/31 02:26:55;;;;;;;9.70;2.75;;;2.50;99.90;;;;;;5000246;28;20022;-59
2023/01/31 02:29:43;;;;;;;11.38;2.28;;;2.60;99.90;;;;;;4999276;28;20084;-58
2023/01/31 02:32:20;;;;;;;8.32;1.70;;;2.60;99.90;;;;;;5001125;28;20032;-59
2023/01/31 02:34:48;;;;;;;13.85;3.08;;;2.60;99.90;;;;;;5001154;28;20030;-58
2023/01/31 02:37:48;;;;;;;11.57;2.70;;;2.70;99.90;;;;;;5000147;28;20030;-55
2023/01/31 02:40:27;;;;;;;11.80;1.98;;;2.70;99.90;;;;;;5000583;28;20030;-57
2023/01/31 02:43:16;;;;;;;14.32;2.95;;;2.70;99.90;;;;;;5000083;28;20523;-54
2023/01/31 02:46:13;;;;;;;14.10;3.40;;;2.70;99.90;;;;;;5000583;28;20682;-57
2023/01/31 02:48:52;;;;;;;19.10;2.88;;;2.70;99.90;;;;;;5001764;28;20485;-58
2023/01/31 02:51:37;;;;;;;13.32;2.97;;;2.70;99.90;;;;;;5000956;28;20038;-57
2023/01/31 02:54:22;;;;;;;8.52;2.15;;;2.70;99.90;;;;;;5000556;28;20342;-58
2023/01/31 02:56:49;;;;;;;14.88;2.83;;;2.60;99.90;;;;;;4998638;28;20030;-58
2023/01/31 02:59:25;;;;;;;8.75;2.67;;;2.60;99.90;;;;;;4999159;28;20041;-55
2023/01/31 03:01:59;;;;;;;13.60;2.97;;;2.60;99.90;;;;;;5000272;28;20029;-59
2023/01/31 03:04:29;;;;;;;11.65;2.35;;;2.60;99.90;;;;;;5000667;28;20029;-56
2023/01/31 03:06:59;;;;;;;9.90;2.25;;;2.60;99.90;;;;;;4998893;28;20027;-58
2023/01/31 03:09:43;;;;;;;9.10;1.77;;;2.60;99.90;;;;;;5000292;28;20480;-55
2023/01/31 03:12:51;;;;;;;9.75;2.72;;;2.60;99.90;;;;;;4998203;28;20400;-57
2023/01/31 03:18:50;;;;;;;8.50;1.75;;;2.60;99.90;;;;;;5000034;28;20057;-58
2023/01/31 03:21:22;;;;;;;11.07;2.22;;;2.50;99.90;;;;;;5000752;28;20075;-56
2023/01/31 03:23:52;;;;;;;9.23;2.60;;;2.40;99.90;;;;;;4998346;28;20014;-57
2023/01/31 03:26:19;;;;;;;13.68;2.17;;;2.40;99.90;;;;;;4997652;28;20030;-55
2023/01/31 03:28:49;;;;;;;10.68;2.22;;;2.40;99.90;;;;;;5000324;28;20029;-56
2023/01/31 03:31:19;;;;;;;14.90;2.40;;;2.40;99.90;;;;;;4999271;28;20026;-57
2023/01/31 03:33:49;;;;;;;11.98;2.42;;;2.40;99.90;;;;;;4999180;28;20026;-56
2023/01/31 03:36:45;;;;;;;11.27;2.05;;;2.40;99.90;;;;;;4998356;28;20411;-58
2023/01/31 03:39:16;;;;;;;14.23;2.55;;;2.40;99.90;;;;;;4999807;28;20018;-59
2023/01/31 03:41:57;;;;;;;5.82;1.88;;;2.40;99.90;;;;;;5000278;28;20129;-57
2023/01/31 03:44:46;;;;;;;8.25;1.60;;;2.40;99.90;;;;;;5000313;28;20030;-59
2023/01/31 03:47:22;;;;;;;9.38;2.20;;;2.50;99.90;;;;;;4999382;28;20124;-57
2023/01/31 03:49:50;;;;;;;10.15;1.88;;;2.50;99.90;;;;;;5000119;28;20018;-56
2023/01/31 03:52:22;;;;;;;7.38;1.70;;;2.50;99.90;;;;;;4999668;28;20088;-57
2023/01/31 03:55:12;;;;;;;4.88;1.70;;;2.50;99.90;;;;;;4999996;28;20025;-57
2023/01/31 03:57:41;;;;;;;6.45;2.17;;;2.50;99.90;;;;;;4999361;28;20030;-58
2023/01/31 04:00:11;;;;;;;8.07;2.00;;;2.60;99.90;;;;;;4998779;28;20077;-56
2023/01/31 04:02:37;;;;;;;11.40;2.28;;;2.60;99.90;;;;;;4999892;28;20031;-55
2023/01/31 04:05:11;;;;;;;6.40;1.65;;;2.60;99.90;;;;;;4999137;28;20037;-57
2023/01/31 04:07:38;;;;;;;7.28;2.47;;;2.60;99.90;;;;;;4998319;28;20021;-57
2023/01/31 04:10:15;;;;;;;6.80;2.00;;;2.60;99.90;;;;;;4997557;28;20117;-54
2023/01/31 04:12:41;;;;;;;11.07;2.60;;;2.60;99.90;;;;;;4998510;28;20084;-58
2023/01/31 04:15:07;;;;;;;9.80;2.88;;;2.70;99.90;;;;;;4999909;28;20030;-58
2023/01/31 04:17:33;;;;;;;12.80;2.50;;;2.70;99.90;;;;;;4998647;28;20025;-59
2023/01/31 04:19:59;;;;;;;15.60;3.10;;;2.70;99.90;;;;;;4999352;28;20052;-59
2023/01/31 04:22:25;;;;;;;7.72;2.72;;;2.70;99.90;;;;;;4998363;28;20030;-58
2023/01/31 04:24:51;;;;;;;15.73;3.08;;;2.70;99.90;;;;;;4998946;28;20034;-58
2023/01/31 04:27:16;;;;;;;8.32;2.00;;;2.70;99.90;;;;;;4999151;28;20109;-59
2023/01/31 04:29:42;;;;;;;8.00;2.30;;;2.70;99.90;;;;;;4998449;28;20464;-57
2023/01/31 04:32:08;;;;;;;14.07;3.53;;;2.70;99.90;;;;;;4998172;28;20026;-56
2023/01/31 04:34:33;;;;;;;11.77;1.77;;;2.80;99.90;;;;;;4998942;28;20033;-57
2023/01/31 04:36:59;;;;;;;8.90;3.05;;;2.70;99.90;;;;;;4997448;28;20520;-55
2023/01/31 04:39:25;;;;;;;15.82;3.30;;;2.80;99.90;;;;;;4999121;28;20120;-53
2023/01/31 04:41:50;;;;;;;11.00;2.53;;;2.80;99.90;;;;;;4997155;28;20393;-57
2023/01/31 04:44:17;;;;;;;14.85;2.63;;;2.80;99.90;;;;;;4996070;28;20542;-58
2023/01/31 04:46:45;;;;;;;6.88;2.28;;;2.80;99.90;;;;;;5022917;23;20136;-57
2023/01/31 04:49:11;;;;;;;18.75;3.20;;;2.80;99.90;;;;;;5015893;28;20014;-58
2023/01/31 04:51:37;;;;;;;17.10;3.10;;;2.80;99.90;;;;;;5019307;28;20029;-58
2023/01/31 04:54:03;;;;;;;12.57;2.35;;;2.80;99.90;;;;;;5017928;28;20511;-57
2023/01/31 04:56:28;;;;;;;13.90;3.08;;;2.80;99.90;;;;;;5014680;28;20044;-58
2023/01/31 04:58:54;;;;;;;15.38;2.92;;;2.80;99.90;;;;;;5017154;28;20116;-58
2023/01/31 05:01:19;;;;;;;10.38;3.05;;;2.80;99.90;;;;;;5018704;28;20014;-57
2023/01/31 05:03:45;;;;;;;17.10;3.67;;;2.80;99.90;;;;;;5018570;28;20018;-56
2023/01/31 05:06:11;;;;;;;16.17;3.90;;;2.80;99.90;;;;;;5016471;28;20017;-58
2023/01/31 05:08:36;;;;;;;13.65;3.33;;;2.90;99.90;;;;;;5018434;28;20032;-57
2023/01/31 05:11:04;;;;;;;14.07;3.30;;;2.90;99.90;;;;;;5016889;28;20456;-58
2023/01/31 05:13:31;;;;;;;14.27;3.35;;;2.80;99.90;;;;;;5016630;28;20042;-56
2023/01/31 05:15:56;;;;;;;11.60;2.58;;;2.90;99.90;;;;;;5017089;28;20018;-57
2023/01/31 05:18:26;;;;;;;14.05;2.83;;;2.80;99.90;;;;;;5018242;28;20041;-58
2023/01/31 05:20:52;;;;;;;16.25;2.63;;;2.90;99.90;;;;;;5017585;28;20227;-59
2023/01/31 05:23:18;;;;;;;10.52;3.13;;;2.80;99.90;;;;;;5020726;28;20559;-58
2023/01/31 05:25:44;;;;;;;10.23;2.22;;;2.90;99.90;;;;;;5022149;28;20112;-58
2023/01/31 05:28:10;;;;;;;13.43;2.85;;;2.90;99.90;;;;;;5022170;28;20516;-56
2023/01/31 05:30:36;;;;;;;10.38;3.38;;;2.90;99.90;;;;;;5021256;28;20518;-58
2023/01/31 05:33:02;;;;;;;12.32;3.05;;;2.90;99.90;;;;;;5021350;28;20108;-57
2023/01/31 05:35:28;;;;;;;12.52;2.30;;;2.90;99.90;;;;;;5020964;28;20516;-54
2023/01/31 05:37:54;;;;;;;15.88;3.33;;;3.00;99.90;;;;;;5020212;28;20045;-57
2023/01/31 05:40:21;;;;;;;14.52;3.35;;;3.00;99.90;;;;;;5021134;28;20033;-59
2023/01/31 05:42:53;;;;;;;8.25;1.73;;;3.00;99.90;;;;;;5021501;28;20051;-57
2023/01/31 05:45:19;;;;;;;14.85;2.35;;;3.00;99.90;;;;;;5020149;28;20500;-59
2023/01/31 05:47:46;;;;;;;12.75;2.85;;;3.00;99.90;;;;;;5019364;28;20068;-58
2023/01/31 05:50:11;;;;;;;12.07;3.28;;;3.00;99.90;;;;;;5021445;28;20128;-59
2023/01/31 05:52:37;;;;;;;14.77;3.47;;;3.10;99.90;;;;;;5020404;28;20026;-57
2023/01/31 05:55:03;;;;;;;13.07;2.92;;;3.10;99.90;;;;;;5021246;28;20026;-57
2023/01/31 05:57:28;;;;;;;19.83;3.38;;;3.10;99.90;;;;;;5021743;28;20051;-58
2023/01/31 05:59:54;;;;;;;10.55;2.88;;;3.10;99.90;;;;;;5021975;28;20507;-59
2023/01/31 06:02:19;;;;;;;8.70;2.67;;;3.10;99.90;;;;;;5021407;28;20029;-59
2023/01/31 06:04:46;;;;;;;15.73;3.15;;;3.10;99.90;;;;;;5020988;28;20505;-58
2023/01/31 06:07:11;;;;;;;11.85;3.10;;;3.10;99.90;;;;;;5021278;28;20119;-58
2023/01/31 06:09:39;;;;;;;25.33;5.68;;;3.10;99.90;;;;;;5021205;28;20529;-58
2023/01/31 06:12:05;;;;;;;13.77;3.40;;;3.10;99.90;;;;;;5020156;28;20392;-58
2023/01/31 06:14:31;;;;;;;14.93;4.00;;;3.10;99.90;;;;;;5020811;28;20496;-57
2023/01/31 06:16:57;;;;;;;17.70;4.75;;;3.10;99.90;;;;;;5020677;28;20034;-56
2023/01/31 06:19:24;;;;;;;15.48;3.33;;;3.10;99.90;;;;;;5018277;28;20448;-56
2023/01/31 06:21:50;;;;;;;25.85;3.85;;;3.10;99.90;;;;;;5003428;28;20391;-56
2023/01/31 06:24:16;;;;;;;13.23;2.80;;;3.10;99.90;;;;;;5021072;28;20080;-57
2023/01/31 06:26:42;;;;;;;9.75;1.85;;;3.10;99.90;;;;;;5019064;28;20049;-59
2023/01/31 06:29:08;;;;;;;20.85;3.17;;;3.00;99.90;;;;;;5021142;28;20109;-57
2023/01/31 06:31:34;;;;;;;20.05;3.05;;;3.10;99.90;;;;;;5019781;28;20061;-58
2023/01/31 06:33:59;;;;;;;15.63;3.28;;;3.10;99.90;;;;;;5018517;28;20504;-59
2023/01/31 06:36:25;;;;;;;19.45;3.78;;;3.10;99.90;;;;;;5020933;28;20034;-58
2023/01/31 06:38:51;;;;;;;11.25;2.83;;;3.10;99.90;;;;;;5020872;28;20053;-59
2023/01/31 06:41:18;;;;;;;14.15;2.88;;;3.10;99.90;;;;;;5020981;28;20092;-58
2023/01/31 06:43:43;;;;;;;13.77;2.92;;;3.10;99.90;;;;;;5020187;28;20467;-57
2023/01/31 06:46:09;;;;;;;16.05;3.30;;;3.10;99.90;;;;;;5019294;28;20041;-57
2023/01/31 06:48:35;;;;;;;11.90;3.10;;;3.10;99.90;;;;;;5019403;28;20045;-58
2023/01/31 06:51:00;;;;;;;13.63;2.75;;;3.10;99.90;;;;;;5019295;28;20036;-58
2023/01/31 06:53:26;;;;;;;13.98;3.45;;;3.10;99.90;;;;;;5018692;28;21046;-59
2023/01/31 06:55:52;;;;;;;10.98;3.42;;;3.20;99.90;;;;;;5019391;28;20555;-57
2023/01/31 06:58:17;;;;;;;15.13;3.20;;;3.20;99.90;;;;;;5020262;28;20517;-59
2023/01/31 07:00:43;;;;;;;15.27;3.80;;;3.20;99.90;;;;;;5020805;28;20042;-57
2023/01/31 07:03:08;;;;;;;16.70;3.22;;;3.20;99.90;;;;;;5018972;28;20018;-59
2023/01/31 07:05:34;;;;;;;16.73;3.17;;;3.20;99.90;;;;;;5018987;28;20025;-59
2023/01/31 07:08:00;;;;;;;12.10;3.10;;;3.30;99.90;;;;;;5020696;28;20026;-57
2023/01/31 07:10:25;;;;;;;10.85;2.45;;;3.30;99.90;;;;;;5020109;28;20034;-58
2023/01/31 07:12:51;;;;;;;11.52;2.03;;;3.20;99.90;;;;;;5018353;28;20026;-58
2023/01/31 07:15:16;;;;;;;18.70;3.35;;;3.30;99.90;;;;;;5018571;28;20068;-58
2023/01/31 07:17:43;;;;;;;15.85;3.45;;;3.30;99.90;;;;;;5020405;28;20518;-58
2023/01/31 07:20:09;;;;;;;14.93;2.95;;;3.30;99.90;;;;;;5018714;28;20022;-57
2023/01/31 07:22:34;;;;;;;12.48;3.35;;;3.30;99.90;;;;;;5019123;28;20026;-57
2023/01/31 07:25:00;;;;;;;22.30;4.13;;;3.30;99.90;;;;;;5019983;28;20017;-59
2023/01/31 07:27:26;;;;;;;11.38;3.22;;;3.40;99.90;;;;;;5018066;28;20022;-56
2023/01/31 07:29:52;;;;;;;16.90;3.20;;;3.40;99.90;;;;;;5020371;28;20083;-58
2023/01/31 07:32:17;;;;;;;18.05;3.72;;;3.40;99.90;;;;;;5020531;28;20022;-58
2023/01/31 07:34:43;;;;;;;14.45;3.80;;;3.40;99.90;;;;;;5020047;28;20042;-58
2023/01/31 07:37:08;;;;;;;18.42;4.00;;;3.40;99.90;;;;;;5017698;28;20488;-58
2023/01/31 07:39:34;;;;;;;14.77;3.25;;;3.40;99.90;;;;;;5020482;28;20406;-59
2023/01/31 07:41:59;;;;;;;24.45;3.38;;;3.40;99.90;;;;;;5018544;28;20092;-58
2023/01/31 07:44:25;;;;;;;14.32;3.80;;;3.50;99.90;;;;;;5018535;28;20515;-59
2023/01/31 07:46:53;;;;;;;14.98;4.45;;;3.50;99.90;;;;;;5016417;28;20041;-58
2023/01/31 07:49:19;;;;;;;12.32;3.95;;;3.50;99.90;;;;;;5018672;28;20101;-57
2023/01/31 07:51:44;;;;;;;19.60;4.85;;;3.50;99.90;;;;;;5018028;28;20168;-59
2023/01/31 07:54:11;;;;;;;13.35;3.45;;;3.50;99.90;;;;;;5018766;28;20028;-60
2023/01/31 07:56:37;;;;;;;11.48;3.70;;;3.60;99.90;;;;;;5016044;28;20028;-58
2023/01/31 07:59:03;;;;;;;16.10;4.80;;;3.60;99.90;;;;;;5017643;28;20033;-57
2023/01/31 08:04:15;;;;;;;17.80;4.28;;;3.60;99.90;;;;;;5017840;28;20528;-59
2023/01/31 08:06:42;;;;;;;18.95;4.72;;;3.60;99.90;;;;;;5017457;28;20025;-58
2023/01/31 08:09:09;;;;;;;14.70;4.85;;;3.60;99.90;;;;;;5018328;28;20029;-59
2023/01/31 08:11:34;;;;;;;16.08;3.83;;;3.70;99.90;;;;;;5015842;28;20029;-59
2023/01/31 08:14:00;;;;;;;16.02;5.30;;;3.70;99.90;;;;;;5017950;28;20507;-57
2023/01/31 08:16:26;;;;;;;20.20;4.85;;;3.70;99.90;;;;;;5016840;28;20033;-59
2023/01/31 08:18:52;;;;;;;15.68;5.13;;;3.70;99.90;;;;;;5018958;28;20517;-59
2023/01/31 08:21:18;;;;;;;16.77;5.43;;;3.80;99.90;;;;;;5018539;28;20022;-59
2023/01/31 08:23:44;;;;;;;16.67;5.38;;;3.80;99.90;;;;;;5018801;28;20045;-60
2023/01/31 08:26:19;;;;;;;18.35;5.38;;;3.80;99.90;;;;;;5016711;28;20021;-57
2023/01/31 08:28:46;;;;;;;20.02;5.40;;;3.90;99.90;;;;;;5017050;28;20037;-58
2023/01/31 08:31:23;;;;;;;18.95;5.88;;;3.90;99.90;;;;;;5017274;28;20033;-58
2023/01/31 08:33:51;;;;;;;20.40;4.95;;;3.90;99.90;;;;;;5018731;28;20026;-58
2023/01/31 08:36:20;;;;;;;24.17;6.47;;;3.90;99.90;;;;;;5016357;28;20032;-59
2023/01/31 08:38:47;;;;;;;15.52;5.47;;;3.90;99.90;;;;;;5016892;28;20029;-58
2023/01/31 08:41:13;;;;;;;17.55;5.07;;;3.90;99.90;;;;;;5018566;28;20021;-57
2023/01/31 08:43:38;;;;;;;14.57;4.93;;;3.90;99.90;;;;;;5016641;28;20099;-60
2023/01/31 08:46:04;;;;;;;18.65;5.00;;;3.90;99.90;;;;;;5017121;28;20397;-57
2023/01/31 08:48:34;;;;;;;16.40;5.93;;;3.90;99.90;;;;;;5017853;28;20041;-60
2023/01/31 08:51:05;;;;;;;12.43;5.68;;;4.00;99.90;;;;;;5016461;28;20031;-58
2023/01/31 08:53:31;;;;;;;11.95;5.82;;;4.00;99.90;;;;;;5016794;28;20045;-58
2023/01/31 08:56:00;;;;;;;21.13;4.95;;;4.00;99.90;;;;;;5017568;28;20037;-59
2023/01/31 08:58:25;;;;;;;17.85;4.78;;;4.00;99.90;;;;;;5016494;28;20614;-58
2023/01/31 09:00:51;;;;;;;13.65;5.20;;;4.00;99.90;;;;;;5018438;28;20056;-59
2023/01/31 09:03:16;;;;;;;21.70;6.53;;;4.00;99.90;;;;;;5017838;28;20095;-58
2023/01/31 09:05:42;;;;;;;12.57;5.07;;;4.10;99.90;;;;;;5018113;28;20163;-59
2023/01/31 09:08:07;;;;;;;22.90;6.32;;;4.00;99.90;;;;;;5017317;28;20562;-60
2023/01/31 09:10:33;;;;;;;17.48;6.05;;;4.00;99.90;;;;;;5016744;28;20033;-60
2023/01/31 09:13:00;;;;;;;20.63;5.72;;;4.00;99.90;;;;;;5018257;28;20018;-61
2023/01/31 09:15:28;;;;;;;26.67;5.95;;;4.00;99.90;;;;;;5015646;28;20026;-60
2023/01/31 09:17:54;;;;;;;14.23;5.43;;;4.10;99.90;;;;;;5017555;28;20027;-59
2023/01/31 09:20:19;;;;;;;21.70;5.95;;;4.10;99.90;;;;;;5016020;28;20117;-59
2023/01/31 09:22:45;;;;;;;17.85;5.85;;;4.10;99.90;;;;;;5018263;28;20499;-59
2023/01/31 09:25:11;;;;;;;18.58;6.40;;;4.10;99.90;;;;;;5018010;28;20033;-59
2023/01/31 09:27:37;;;;;;;22.30;6.38;;;4.10;99.90;;;;;;5017595;28;20105;-59
2023/01/31 09:30:07;;;;;;;20.35;6.97;;;4.10;99.90;;;;;;5015723;28;20029;-58
2023/01/31 09:32:34;;;;;;;18.42;6.10;;;4.10;99.90;;;;;;5016316;28;20030;-60
2023/01/31 09:34:59;;;;;;;17.33;6.35;;;4.10;99.90;;;;;;5016919;28;20186;-58
2023/01/31 09:37:29;;;;;;;16.05;6.03;;;4.20;99.90;;;;;;5016226;28;20147;-60
2023/01/31 09:39:55;;;;;;;13.13;4.90;;;4.20;99.90;;;;;;5017679;28;20434;-58
2023/01/31 09:42:42;;;;;;;18.42;6.45;;;4.20;99.90;;;;;;5016647;28;20026;-58
2023/01/31 09:45:08;;;;;;;;;;;4.20;99.90;;;;;;5018488;28;20623;-57
2023/01/31 09:47:37;;;;;;;22.40;5.90;;;4.20;99.90;;;;;;5015071;28;19963;-59
2023/01/31 09:50:16;;;;;;;15.05;6.38;;;4.20;99.90;;;;;;5016849;28;20018;-59
2023/01/31 09:52:41;;;;;;;17.75;5.88;;;4.20;99.90;;;;;;5015887;28;20492;-59
2023/01/31 09:55:19;;;;;;;14.40;5.82;;;4.20;99.90;;;;;;5015665;28;20040;-59
2023/01/31 09:57:51;;;;;;;14.25;6.05;;;4.30;99.90;;;;;;5017993;28;20045;-58
2023/01/31 10:00:28;;;;;;;15.32;5.75;;;4.30;99.90;;;;;;5018163;28;20021;-55
2023/01/31 10:03:16;;;;;;;9.93;5.13;;;4.30;99.90;;;;;;5016031;28;20160;-58
2023/01/31 10:05:50;;;;;;;17.45;5.93;;;4.30;99.90;;;;;;5016158;28;20025;-59
2023/01/31 10:08:35;;;;;;;11.07;5.63;;;4.30;99.90;;;;;;5017499;28;20492;-59
2023/01/31 10:11:06;;;;;;;16.20;6.57;;;4.30;99.90;;;;;;5018679;28;20511;-58
2023/01/31 10:13:53;;;;;;;12.05;5.03;;;4.30;99.90;;;;;;5019967;28;20033;-59
2023/01/31 10:16:34;;;;;;;11.73;5.45;;;4.40;99.90;;;;;;5019719;28;20026;-55
2023/01/31 10:19:15;;;;;;;9.65;5.45;;;4.40;99.90;;;;;;5020638;28;20101;-60
2023/01/31 10:21:50;;;;;;;14.25;5.82;;;4.40;99.90;;;;;;5018591;28;20025;-59
2023/01/31 10:24:27;;;;;;;12.57;6.85;;;4.40;99.90;;;;;;5017962;28;20439;-58
2023/01/31 10:27:00;;;;;;;10.02;5.35;;;4.40;99.90;;;;;;5018792;28;20025;-60
2023/01/31 10:29:36;;;;;;;8.63;5.90;;;4.50;99.90;;;;;;5020632;28;20033;-58
2023/01/31 10:32:04;;;;;;;18.95;6.20;;;4.50;99.90;;;;;;5018327;28;20030;-59
2023/01/31 10:34:33;;;;;;;16.65;6.57;;;4.50;99.90;;;;;;5018760;28;20030;-60
2023/01/31 10:37:15;;;;;;;10.00;4.78;;;4.50;99.90;;;;;;5020514;28;20030;-61
2023/01/31 10:39:45;;;;;;;9.82;5.85;;;4.50;99.90;;;;;;5019412;28;20033;-59
2023/01/31 10:42:31;;;;;;;10.70;5.75;;;4.50;99.90;;;;;;5019505;28;20014;-59
2023/01/31 10:45:07;;;;;;;8.40;5.65;;;4.60;99.90;;;;;;5019826;28;20022;-59
2023/01/31 10:50:29;;;;;;;7.60;5.20;;;4.60;99.90;;;;;;4959630;28;20050;-57
2023/01/31 10:53:14;;;;;;;14.85;5.88;;;4.60;99.90;;;;;;4961684;28;20628;-57
2023/01/31 10:55:54;;;;;;;9.85;5.95;;;4.60;99.90;;;;;;4961300;28;20114;-57
2023/01/31 10:58:22;;;;;;;12.77;6.32;;;4.70;99.90;;;;;;4960342;28;20544;-58
2023/01/31 11:00:48;;;;;;;15.05;6.47;;;4.70;99.90;;;;;;4961744;28;20018;-57
2023/01/31 11:03:14;;;;;;;11.05;5.72;;;4.70;99.90;;;;;;4959024;28;20027;-58
2023/01/31 11:05:51;;;;;;;12.55;5.93;;;4.70;99.90;;;;;;4961093;28;20528;-58
2023/01/31 11:08:19;;;;;;;;;;;4.70;99.90;;;;;;4961585;28;20042;-58
2023/01/31 11:10:51;;;;;;;15.40;6.25;;;4.70;99.90;;;;;;4961742;28;20022;-57
2023/01/31 11:13:18;;;;;;;9.50;5.40;;;4.80;99.90;;;;;;4960919;28;20034;-58
2023/01/31 11:15:44;;;;;;;15.48;5.93;;;4.80;99.90;;;;;;4961806;28;20026;-56
2023/01/31 11:18:23;;;;;;;13.02;6.47;;;4.80;99.90;;;;;;4959856;28;20642;-57
2023/01/31 11:20:49;;;;;;;10.98;5.22;;;4.90;99.90;;;;;;4960947;28;20023;-54
2023/01/31 11:23:21;;;;;;;11.52;5.72;;;4.90;99.90;;;;;;4959473;28;20501;-57
2023/01/31 11:25:49;;;;;;;11.15;5.10;;;5.00;99.90;;;;;;4959521;28;20489;-58
2023/01/31 11:28:38;;;;;;;14.45;5.82;;;5.00;99.90;;;;;;4961102;28;20074;-58
2023/01/31 11:31:16;;;;;;;11.40;5.55;;;5.00;99.90;;;;;;4961769;28;20085;-58
2023/01/31 11:33:56;;;;;;;10.25;4.97;;;5.00;99.90;;;;;;4961215;28;20104;-56
2023/01/31 11:36:23;;;;;;;9.75;5.43;;;5.00;99.90;;;;;;4960641;28;20027;-55
2023/01/31 11:38:49;;;;;;;9.45;4.88;;;5.10;99.90;;;;;;4960798;28;20081;-61
2023/01/31 11:41:26;;;;;;;10.00;5.32;;;5.10;99.90;;;;;;4960347;28;20034;-55
2023/01/31 11:44:14;;;;;;;8.48;5.55;;;5.10;99.90;;;;;;4961012;28;20035;-56
2023/01/31 11:46:51;;;;;;;10.43;5.05;;;5.10;99.90;;;;;;4960208;28;20126;-59
2023/01/31 11:49:22;;;;;;;7.20;4.15;;;5.20;99.90;;;;;;4961623;28;20118;-58
2023/01/31 11:51:48;;;;;;;7.75;3.92;;;5.20;99.90;;;;;;4961349;28;20031;-57
2023/01/31 11:54:22;;;;;;;11.07;4.72;;;5.20;99.90;;;;;;4960734;28;20078;-58
2023/01/31 11:56:48;;;;;;;6.72;2.95;;;5.20;99.90;;;;;;4958152;28;20264;-57
2023/01/31 11:59:20;;;;;;;5.03;3.78;;;5.20;99.90;;;;;;4960451;28;20034;-58
2023/01/31 12:01:52;;;;;;;5.80;3.20;;;5.20;99.90;;;;;;4960467;28;20437;-59
2023/01/31 12:04:29;;;;;;;4.82;3.25;;;5.20;99.90;;;;;;4959775;28;20552;-58
2023/01/31 12:06:56;;;;;;;;;;;5.20;99.90;;;;;;4959417;28;20505;-58
2023/01/31 12:09:25;;;;;;;4.70;2.88;;;5.30;99.90;;;;;;4960935;28;19915;-58
2023/01/31 12:11:56;;;;;;;3.50;2.88;;;5.30;99.90;;;;;;4958223;28;20038;-57
2023/01/31 12:14:23;;;;;;;7.32;2.97;;;5.30;99.90;;;;;;4957949;28;20700;-59
2023/01/31 12:16:54;;;;;;;8.80;3.83;;;5.40;99.90;;;;;;4960142;28;20030;-58
2023/01/31 12:19:32;;;;;;;5.50;2.80;;;5.40;99.90;;;;;;4959931;28;20031;-59
2023/01/31 12:22:23;;;;;;;5.05;2.75;;;5.40;99.90;;;;;;4958996;28;20030;-56
2023/01/31 12:25:02;;;;;;;5.25;2.40;;;5.40;99.90;;;;;;4958969;28;20110;-58
2023/01/31 12:27:48;;;;;;;5.88;2.55;;;5.40;99.90;;;;;;4959024;28;20034;-58
2023/01/31 12:30:20;;;;;;;6.63;3.20;;;5.50;99.90;;;;;;4960824;28;20026;-57
2023/01/31 12:33:04;;;;;;;4.07;2.45;;;5.50;99.90;;;;;;4974277;28;20019;-56
2023/01/31 12:35:41;;;;;;;3.78;2.65;;;5.50;99.90;;;;;;4959248;28;20428;-57
2023/01/31 12:38:20;;;;;;;4.95;1.88;;;5.50;99.90;;;;;;4959665;28;20030;-58
2023/01/31 12:41:02;;;;;;;4.18;2.05;;;5.50;99.90;;;;;;4959605;28;20039;-58
2023/01/31 12:43:43;;;;;;;3.15;1.83;;;5.60;99.90;;;;;;4959711;28;20038;-58
2023/01/31 12:46:31;;;;;;;3.38;2.30;;;5.60;99.90;;;;;;4959229;28;20058;-59
2023/01/31 12:49:03;;;;;;;4.35;2.47;;;5.60;99.90;;;;;;4958277;28;20492;-53
2023/01/31 12:51:41;;;;;;;7.20;4.07;;;5.60;99.90;;;;;;4973962;28;20030;-57
2023/01/31 12:54:44;;;;;;;4.53;2.15;;;5.60;99.90;;;;;;4959280;28;20073;-58
2023/01/31 12:57:55;;;;;;;3.85;2.58;;;5.70;99.90;;;;;;4960172;28;20027;-58
2023/01/31 13:00:44;;;;;;;5.75;2.00;;;5.70;99.90;;;;;;4912555;29;20163;-58
2023/01/31 13:03:45;;;;;;;2.85;1.65;;;5.70;99.90;;;;;;4956833;28;20138;-58
2023/01/31 13:06:15;;;;;;;4.53;2.22;;;5.80;99.90;;;;;;4959356;28;20034;-57
2023/01/31 13:08:52;;;;;;;3.60;2.03;;;5.70;99.90;;;;;;4959505;28;20083;-57
2023/01/31 13:11:40;;;;;;;5.72;2.10;;;5.80;99.90;;;;;;4959681;28;20026;-57
2023/01/31 13:14:13;;;;;;;5.85;1.98;;;5.80;99.90;;;;;;4958706;28;20034;-55
2023/01/31 13:16:44;;;;;;;1.83;1.60;;;5.90;99.90;;;;;;4956987;28;20382;-58